sensor_id;sensor_type;location;lat;lon;timestamp;temperature;humidity
439;DHT22;206;48.782;9.252;2022-08-19T00:01:08;24.90;29.40
439;DHT22;206;48.782;9.252;2022-08-19T00:03:34;24.80;29.40
439;DHT22;206;48.782;9.252;2022-08-19T00:06:00;24.80;29.40
439;DHT22;206;48.782;9.252;2022-08-19T00:08:25;24.80;29.50
439;DHT22;206;48.782;9.252;2022-08-19T00:10:51;24.80;29.60
439;DHT22;206;48.782;9.252;2022-08-19T00:13:17;24.70;29.70
439;DHT22;206;48.782;9.252;2022-08-19T00:15:44;24.70;29.80
439;DHT22;206;48.782;9.252;2022-08-19T00:18:10;24.70;29.70
439;DHT22;206;48.782;9.252;2022-08-19T00:20:36;24.70;29.90
439;DHT22;206;48.782;9.252;2022-08-19T00:23:03;24.70;30.00
439;DHT22;206;48.782;9.252;2022-08-19T00:25:29;24.60;30.10
439;DHT22;206;48.782;9.252;2022-08-19T00:27:54;24.60;30.60
439;DHT22;206;48.782;9.252;2022-08-19T00:30:21;24.50;30.80
439;DHT22;206;48.782;9.252;2022-08-19T00:32:46;24.40;31.20
439;DHT22;206;48.782;9.252;2022-08-19T00:35:12;24.30;31.40
439;DHT22;206;48.782;9.252;2022-08-19T00:37:38;24.30;31.80
439;DHT22;206;48.782;9.252;2022-08-19T00:40:05;24.20;31.90
439;DHT22;206;48.782;9.252;2022-08-19T00:42:31;24.20;32.00
439;DHT22;206;48.782;9.252;2022-08-19T00:44:58;24.20;32.10
439;DHT22;206;48.782;9.252;2022-08-19T00:47:23;24.10;32.40
439;DHT22;206;48.782;9.252;2022-08-19T00:49:52;24.10;32.40
439;DHT22;206;48.782;9.252;2022-08-19T00:52:28;24.10;32.50
439;DHT22;206;48.782;9.252;2022-08-19T00:54:54;24.00;32.40
439;DHT22;206;48.782;9.252;2022-08-19T00:57:26;24.00;32.50
439;DHT22;206;48.782;9.252;2022-08-19T00:59:55;24.00;32.60
439;DHT22;206;48.782;9.252;2022-08-19T01:02:21;24.00;32.60
439;DHT22;206;48.782;9.252;2022-08-19T01:04:47;24.00;32.60
439;DHT22;206;48.782;9.252;2022-08-19T01:07:13;24.10;32.60
439;DHT22;206;48.782;9.252;2022-08-19T01:09:39;24.10;32.40
439;DHT22;206;48.782;9.252;2022-08-19T01:12:04;24.10;32.20
439;DHT22;206;48.782;9.252;2022-08-19T01:14:31;24.20;32.20
439;DHT22;206;48.782;9.252;2022-08-19T01:16:57;24.20;32.00
439;DHT22;206;48.782;9.252;2022-08-19T01:19:32;24.30;32.10
439;DHT22;206;48.782;9.252;2022-08-19T01:22:19;24.20;31.90
439;DHT22;206;48.782;9.252;2022-08-19T01:24:47;24.30;32.10
439;DHT22;206;48.782;9.252;2022-08-19T01:27:13;24.30;32.00
439;DHT22;206;48.782;9.252;2022-08-19T01:29:42;24.30;32.00
439;DHT22;206;48.782;9.252;2022-08-19T01:32:17;24.30;32.00
439;DHT22;206;48.782;9.252;2022-08-19T01:34:45;24.30;32.00
439;DHT22;206;48.782;9.252;2022-08-19T01:37:13;24.20;32.10
439;DHT22;206;48.782;9.252;2022-08-19T01:39:40;24.30;32.20
439;DHT22;206;48.782;9.252;2022-08-19T01:42:07;24.20;32.30
439;DHT22;206;48.782;9.252;2022-08-19T01:44:36;24.30;32.20
439;DHT22;206;48.782;9.252;2022-08-19T01:47:03;24.20;32.40
439;DHT22;206;48.782;9.252;2022-08-19T01:49:29;24.20;33.10
439;DHT22;206;48.782;9.252;2022-08-19T01:51:54;24.20;32.30
439;DHT22;206;48.782;9.252;2022-08-19T01:54:22;24.20;32.40
439;DHT22;206;48.782;9.252;2022-08-19T01:56:49;24.20;32.40
439;DHT22;206;48.782;9.252;2022-08-19T01:59:19;24.20;32.30
439;DHT22;206;48.782;9.252;2022-08-19T02:01:45;24.20;32.40
439;DHT22;206;48.782;9.252;2022-08-19T02:04:11;24.20;32.30
439;DHT22;206;48.782;9.252;2022-08-19T02:06:37;24.30;32.30
439;DHT22;206;48.782;9.252;2022-08-19T02:09:04;24.30;32.30
439;DHT22;206;48.782;9.252;2022-08-19T02:11:32;24.30;32.30
439;DHT22;206;48.782;9.252;2022-08-19T02:14:01;24.30;32.40
439;DHT22;206;48.782;9.252;2022-08-19T02:16:27;24.30;32.30
439;DHT22;206;48.782;9.252;2022-08-19T02:18:53;24.30;32.30
439;DHT22;206;48.782;9.252;2022-08-19T02:21:21;24.30;32.60
439;DHT22;206;48.782;9.252;2022-08-19T02:23:48;24.10;33.30
439;DHT22;206;48.782;9.252;2022-08-19T02:26:15;24.10;33.50
439;DHT22;206;48.782;9.252;2022-08-19T02:28:41;24.00;33.80
439;DHT22;206;48.782;9.252;2022-08-19T02:31:16;24.00;34.40
439;DHT22;206;48.782;9.252;2022-08-19T02:33:43;23.90;34.40
439;DHT22;206;48.782;9.252;2022-08-19T02:36:09;23.90;34.60
439;DHT22;206;48.782;9.252;2022-08-19T02:38:36;23.90;34.70
439;DHT22;206;48.782;9.252;2022-08-19T02:41:12;23.80;34.80
439;DHT22;206;48.782;9.252;2022-08-19T02:43:38;23.90;34.80
439;DHT22;206;48.782;9.252;2022-08-19T02:46:23;23.90;35.00
439;DHT22;206;48.782;9.252;2022-08-19T02:48:51;23.90;35.00
439;DHT22;206;48.782;9.252;2022-08-19T02:51:23;23.80;35.40
439;DHT22;206;48.782;9.252;2022-08-19T02:53:49;23.70;35.70
439;DHT22;206;48.782;9.252;2022-08-19T02:56:14;23.60;35.60
439;DHT22;206;48.782;9.252;2022-08-19T02:58:41;23.60;36.30
439;DHT22;206;48.782;9.252;2022-08-19T03:01:06;23.50;37.20
439;DHT22;206;48.782;9.252;2022-08-19T03:03:33;23.50;37.80
439;DHT22;206;48.782;9.252;2022-08-19T03:06:12;23.40;38.00
439;DHT22;206;48.782;9.252;2022-08-19T03:08:41;23.40;38.00
439;DHT22;206;48.782;9.252;2022-08-19T03:11:20;23.40;37.90
439;DHT22;206;48.782;9.252;2022-08-19T03:13:46;23.40;37.90
439;DHT22;206;48.782;9.252;2022-08-19T03:16:15;23.40;38.00
439;DHT22;206;48.782;9.252;2022-08-19T03:18:41;23.40;38.10
439;DHT22;206;48.782;9.252;2022-08-19T03:21:07;23.40;38.20
439;DHT22;206;48.782;9.252;2022-08-19T03:23:33;23.40;38.30
439;DHT22;206;48.782;9.252;2022-08-19T03:26:01;23.30;38.20
439;DHT22;206;48.782;9.252;2022-08-19T03:28:30;23.30;38.10
439;DHT22;206;48.782;9.252;2022-08-19T03:31:02;23.40;38.20
439;DHT22;206;48.782;9.252;2022-08-19T03:33:30;23.40;38.00
439;DHT22;206;48.782;9.252;2022-08-19T03:36:14;23.40;37.90
439;DHT22;206;48.782;9.252;2022-08-19T03:38:46;23.50;37.80
439;DHT22;206;48.782;9.252;2022-08-19T03:41:16;23.50;37.70
439;DHT22;206;48.782;9.252;2022-08-19T03:43:42;23.40;37.70
439;DHT22;206;48.782;9.252;2022-08-19T03:46:13;23.50;37.70
439;DHT22;206;48.782;9.252;2022-08-19T03:48:41;23.40;38.40
439;DHT22;206;48.782;9.252;2022-08-19T03:51:14;23.40;38.00
439;DHT22;206;48.782;9.252;2022-08-19T03:53:40;23.40;38.00
439;DHT22;206;48.782;9.252;2022-08-19T03:56:09;23.30;38.60
439;DHT22;206;48.782;9.252;2022-08-19T03:58:34;23.20;38.60
439;DHT22;206;48.782;9.252;2022-08-19T04:01:11;23.20;38.90
439;DHT22;206;48.782;9.252;2022-08-19T04:03:37;23.20;38.80
439;DHT22;206;48.782;9.252;2022-08-19T04:06:14;23.20;39.10
439;DHT22;206;48.782;9.252;2022-08-19T04:08:42;23.10;39.30
439;DHT22;206;48.782;9.252;2022-08-19T04:11:10;23.00;39.80
439;DHT22;206;48.782;9.252;2022-08-19T04:13:36;23.00;40.00
439;DHT22;206;48.782;9.252;2022-08-19T04:16:04;23.00;40.10
439;DHT22;206;48.782;9.252;2022-08-19T04:18:31;22.90;40.40
439;DHT22;206;48.782;9.252;2022-08-19T04:20:58;23.00;40.20
439;DHT22;206;48.782;9.252;2022-08-19T04:23:23;23.00;40.30
439;DHT22;206;48.782;9.252;2022-08-19T04:25:49;23.00;40.30
439;DHT22;206;48.782;9.252;2022-08-19T04:28:15;23.00;40.30
439;DHT22;206;48.782;9.252;2022-08-19T04:30:47;23.00;40.30
439;DHT22;206;48.782;9.252;2022-08-19T04:33:15;23.00;40.20
439;DHT22;206;48.782;9.252;2022-08-19T04:35:45;23.00;40.40
439;DHT22;206;48.782;9.252;2022-08-19T04:38:11;23.00;40.20
439;DHT22;206;48.782;9.252;2022-08-19T04:40:55;23.00;40.20
439;DHT22;206;48.782;9.252;2022-08-19T04:43:39;23.00;40.30
439;DHT22;206;48.782;9.252;2022-08-19T04:46:09;23.00;40.40
439;DHT22;206;48.782;9.252;2022-08-19T04:48:36;22.90;40.20
439;DHT22;206;48.782;9.252;2022-08-19T04:51:08;23.00;40.40
439;DHT22;206;48.782;9.252;2022-08-19T04:53:35;23.00;40.30
439;DHT22;206;48.782;9.252;2022-08-19T04:56:09;23.00;40.20
439;DHT22;206;48.782;9.252;2022-08-19T04:58:36;23.00;40.20
439;DHT22;206;48.782;9.252;2022-08-19T05:01:02;23.00;40.00
439;DHT22;206;48.782;9.252;2022-08-19T05:03:28;23.00;39.70
439;DHT22;206;48.782;9.252;2022-08-19T05:05:58;23.00;39.70
439;DHT22;206;48.782;9.252;2022-08-19T05:08:23;23.00;40.10
439;DHT22;206;48.782;9.252;2022-08-19T05:10:50;23.00;40.20
439;DHT22;206;48.782;9.252;2022-08-19T05:13:18;23.00;40.20
439;DHT22;206;48.782;9.252;2022-08-19T05:15:45;23.00;40.10
439;DHT22;206;48.782;9.252;2022-08-19T05:18:18;23.00;40.00
439;DHT22;206;48.782;9.252;2022-08-19T05:21:07;23.00;40.00
439;DHT22;206;48.782;9.252;2022-08-19T05:23:51;23.00;40.10
439;DHT22;206;48.782;9.252;2022-08-19T05:26:17;23.00;40.00
439;DHT22;206;48.782;9.252;2022-08-19T05:28:44;23.00;40.00
439;DHT22;206;48.782;9.252;2022-08-19T05:31:09;23.00;39.80
439;DHT22;206;48.782;9.252;2022-08-19T05:33:35;23.00;39.70
439;DHT22;206;48.782;9.252;2022-08-19T05:36:02;23.00;39.90
439;DHT22;206;48.782;9.252;2022-08-19T05:38:28;23.00;40.00
439;DHT22;206;48.782;9.252;2022-08-19T05:40:55;23.00;39.90
439;DHT22;206;48.782;9.252;2022-08-19T05:43:21;23.00;40.00
439;DHT22;206;48.782;9.252;2022-08-19T05:45:46;23.10;40.00
439;DHT22;206;48.782;9.252;2022-08-19T05:48:13;23.10;40.00
439;DHT22;206;48.782;9.252;2022-08-19T05:50:40;22.90;40.90
439;DHT22;206;48.782;9.252;2022-08-19T05:53:07;22.90;40.90
439;DHT22;206;48.782;9.252;2022-08-19T05:55:34;22.80;40.90
439;DHT22;206;48.782;9.252;2022-08-19T05:58:00;22.80;41.00
439;DHT22;206;48.782;9.252;2022-08-19T06:00:27;22.80;41.20
439;DHT22;206;48.782;9.252;2022-08-19T06:02:53;22.80;41.20
439;DHT22;206;48.782;9.252;2022-08-19T06:05:27;22.80;41.20
439;DHT22;206;48.782;9.252;2022-08-19T06:07:53;22.80;41.90
439;DHT22;206;48.782;9.252;2022-08-19T06:10:19;22.90;42.70
439;DHT22;206;48.782;9.252;2022-08-19T06:12:47;22.90;43.80
439;DHT22;206;48.782;9.252;2022-08-19T06:15:14;22.90;45.10
439;DHT22;206;48.782;9.252;2022-08-19T06:17:40;22.90;45.20
439;DHT22;206;48.782;9.252;2022-08-19T06:20:08;23.00;45.90
439;DHT22;206;48.782;9.252;2022-08-19T06:22:47;22.90;45.30
439;DHT22;206;48.782;9.252;2022-08-19T06:25:15;23.00;47.50
439;DHT22;206;48.782;9.252;2022-08-19T06:27:42;23.00;47.40
439;DHT22;206;48.782;9.252;2022-08-19T06:30:08;23.00;48.00
439;DHT22;206;48.782;9.252;2022-08-19T06:32:34;23.00;47.30
439;DHT22;206;48.782;9.252;2022-08-19T06:34:59;23.00;47.10
439;DHT22;206;48.782;9.252;2022-08-19T06:37:25;23.00;46.60
439;DHT22;206;48.782;9.252;2022-08-19T06:39:51;22.90;46.70
439;DHT22;206;48.782;9.252;2022-08-19T06:42:17;22.90;47.00
439;DHT22;206;48.782;9.252;2022-08-19T06:44:45;22.90;47.30
439;DHT22;206;48.782;9.252;2022-08-19T06:47:14;22.90;47.00
439;DHT22;206;48.782;9.252;2022-08-19T06:49:40;22.90;47.10
439;DHT22;206;48.782;9.252;2022-08-19T06:52:06;22.90;47.10
439;DHT22;206;48.782;9.252;2022-08-19T06:54:31;22.70;46.50
439;DHT22;206;48.782;9.252;2022-08-19T06:57:01;22.70;47.50
439;DHT22;206;48.782;9.252;2022-08-19T06:59:28;22.70;49.00
439;DHT22;206;48.782;9.252;2022-08-19T07:02:00;22.70;49.20
439;DHT22;206;48.782;9.252;2022-08-19T07:04:29;22.70;47.90
439;DHT22;206;48.782;9.252;2022-08-19T07:07:06;22.70;48.70
439;DHT22;206;48.782;9.252;2022-08-19T07:09:33;22.70;47.70
439;DHT22;206;48.782;9.252;2022-08-19T07:11:59;22.60;47.20
439;DHT22;206;48.782;9.252;2022-08-19T07:14:26;22.60;47.70
439;DHT22;206;48.782;9.252;2022-08-19T07:16:54;22.60;49.00
439;DHT22;206;48.782;9.252;2022-08-19T07:19:21;22.70;48.70
439;DHT22;206;48.782;9.252;2022-08-19T07:21:48;22.60;49.10
439;DHT22;206;48.782;9.252;2022-08-19T07:24:15;22.70;49.50
439;DHT22;206;48.782;9.252;2022-08-19T07:26:43;22.70;49.30
439;DHT22;206;48.782;9.252;2022-08-19T07:29:10;22.70;48.00
439;DHT22;206;48.782;9.252;2022-08-19T07:31:36;22.70;48.50
439;DHT22;206;48.782;9.252;2022-08-19T07:34:08;22.70;49.00
439;DHT22;206;48.782;9.252;2022-08-19T07:36:36;22.70;50.60
439;DHT22;206;48.782;9.252;2022-08-19T07:39:07;22.70;48.90
439;DHT22;206;48.782;9.252;2022-08-19T07:41:34;22.70;49.60
439;DHT22;206;48.782;9.252;2022-08-19T07:44:01;22.70;49.10
439;DHT22;206;48.782;9.252;2022-08-19T07:46:33;22.70;48.60
439;DHT22;206;48.782;9.252;2022-08-19T07:48:59;22.60;48.50
439;DHT22;206;48.782;9.252;2022-08-19T07:51:26;22.60;49.50
439;DHT22;206;48.782;9.252;2022-08-19T07:53:52;22.70;49.60
439;DHT22;206;48.782;9.252;2022-08-19T07:56:19;22.60;49.20
439;DHT22;206;48.782;9.252;2022-08-19T07:58:48;22.60;49.40
439;DHT22;206;48.782;9.252;2022-08-19T08:01:22;22.50;49.40
439;DHT22;206;48.782;9.252;2022-08-19T08:03:48;22.40;49.60
439;DHT22;206;48.782;9.252;2022-08-19T08:06:33;22.40;50.70
439;DHT22;206;48.782;9.252;2022-08-19T08:09:22;22.40;50.10
439;DHT22;206;48.782;9.252;2022-08-19T08:11:52;22.30;50.70
439;DHT22;206;48.782;9.252;2022-08-19T08:14:30;22.30;50.60
439;DHT22;206;48.782;9.252;2022-08-19T08:16:57;22.30;50.60
439;DHT22;206;48.782;9.252;2022-08-19T08:19:24;22.30;50.30
439;DHT22;206;48.782;9.252;2022-08-19T08:21:50;22.40;51.00
439;DHT22;206;48.782;9.252;2022-08-19T08:24:17;22.40;51.20
439;DHT22;206;48.782;9.252;2022-08-19T08:26:44;22.50;50.80
439;DHT22;206;48.782;9.252;2022-08-19T08:29:13;22.50;51.20
439;DHT22;206;48.782;9.252;2022-08-19T08:31:43;22.50;51.00
439;DHT22;206;48.782;9.252;2022-08-19T08:34:10;22.50;51.10
439;DHT22;206;48.782;9.252;2022-08-19T08:36:38;22.50;52.60
439;DHT22;206;48.782;9.252;2022-08-19T08:39:07;22.60;54.00
439;DHT22;206;48.782;9.252;2022-08-19T08:47:04;22.60;54.30
439;DHT22;206;48.782;9.252;2022-08-19T08:50:16;22.60;53.80
439;DHT22;206;48.782;9.252;2022-08-19T08:52:47;22.70;53.40
439;DHT22;206;48.782;9.252;2022-08-19T08:55:19;22.70;55.00
439;DHT22;206;48.782;9.252;2022-08-19T09:00:28;22.80;55.10
439;DHT22;206;48.782;9.252;2022-08-19T09:02:56;22.80;54.30
439;DHT22;206;48.782;9.252;2022-08-19T09:05:25;22.90;55.10
439;DHT22;206;48.782;9.252;2022-08-19T09:07:56;23.00;52.50
439;DHT22;206;48.782;9.252;2022-08-19T09:10:32;23.00;54.30
439;DHT22;206;48.782;9.252;2022-08-19T09:13:06;23.00;54.50
439;DHT22;206;48.782;9.252;2022-08-19T09:15:44;23.10;53.50
439;DHT22;206;48.782;9.252;2022-08-19T09:18:11;23.20;54.40
439;DHT22;206;48.782;9.252;2022-08-19T09:20:36;23.20;53.20
439;DHT22;206;48.782;9.252;2022-08-19T09:23:02;23.30;53.70
439;DHT22;206;48.782;9.252;2022-08-19T09:25:28;23.30;53.30
439;DHT22;206;48.782;9.252;2022-08-19T09:27:56;23.30;51.30
439;DHT22;206;48.782;9.252;2022-08-19T09:30:26;23.30;52.40
439;DHT22;206;48.782;9.252;2022-08-19T09:32:53;23.20;51.10
439;DHT22;206;48.782;9.252;2022-08-19T09:35:20;23.20;51.90
439;DHT22;206;48.782;9.252;2022-08-19T09:37:48;23.10;52.90
439;DHT22;206;48.782;9.252;2022-08-19T09:40:14;23.10;53.30
439;DHT22;206;48.782;9.252;2022-08-19T09:42:41;23.10;53.30
439;DHT22;206;48.782;9.252;2022-08-19T09:45:09;23.10;53.90
439;DHT22;206;48.782;9.252;2022-08-19T09:47:35;23.10;54.40
439;DHT22;206;48.782;9.252;2022-08-19T09:50:08;23.10;55.30
439;DHT22;206;48.782;9.252;2022-08-19T09:52:38;23.20;57.20
439;DHT22;206;48.782;9.252;2022-08-19T09:55:08;23.10;56.10
439;DHT22;206;48.782;9.252;2022-08-19T09:57:34;23.20;57.00
439;DHT22;206;48.782;9.252;2022-08-19T10:00:01;23.20;57.30
439;DHT22;206;48.782;9.252;2022-08-19T10:02:26;23.20;57.30
439;DHT22;206;48.782;9.252;2022-08-19T10:04:52;23.10;56.90
439;DHT22;206;48.782;9.252;2022-08-19T10:07:36;23.10;59.00
439;DHT22;206;48.782;9.252;2022-08-19T10:10:04;23.10;61.10
439;DHT22;206;48.782;9.252;2022-08-19T10:12:31;23.10;60.20
439;DHT22;206;48.782;9.252;2022-08-19T10:14:59;23.10;58.90
439;DHT22;206;48.782;9.252;2022-08-19T10:17:25;23.00;62.30
439;DHT22;206;48.782;9.252;2022-08-19T10:19:51;23.00;59.60
439;DHT22;206;48.782;9.252;2022-08-19T10:22:18;23.00;61.10
439;DHT22;206;48.782;9.252;2022-08-19T10:24:46;23.00;62.50
439;DHT22;206;48.782;9.252;2022-08-19T10:27:12;23.00;62.80
439;DHT22;206;48.782;9.252;2022-08-19T10:29:39;23.00;63.50
439;DHT22;206;48.782;9.252;2022-08-19T10:32:08;23.10;66.00
439;DHT22;206;48.782;9.252;2022-08-19T10:34:37;23.10;65.40
439;DHT22;206;48.782;9.252;2022-08-19T10:37:04;23.10;64.30
439;DHT22;206;48.782;9.252;2022-08-19T10:39:35;23.10;65.40
439;DHT22;206;48.782;9.252;2022-08-19T10:42:05;23.10;64.60
439;DHT22;206;48.782;9.252;2022-08-19T10:44:32;23.10;65.40
439;DHT22;206;48.782;9.252;2022-08-19T10:46:58;23.20;65.50
439;DHT22;206;48.782;9.252;2022-08-19T10:49:24;23.20;66.20
439;DHT22;206;48.782;9.252;2022-08-19T10:51:50;23.30;66.20
439;DHT22;206;48.782;9.252;2022-08-19T10:54:34;23.30;65.60
439;DHT22;206;48.782;9.252;2022-08-19T10:57:18;23.40;63.30
439;DHT22;206;48.782;9.252;2022-08-19T10:59:43;23.50;63.10
439;DHT22;206;48.782;9.252;2022-08-19T11:02:11;23.50;64.40
439;DHT22;206;48.782;9.252;2022-08-19T11:04:38;23.50;64.70
439;DHT22;206;48.782;9.252;2022-08-19T11:07:04;23.60;61.40
439;DHT22;206;48.782;9.252;2022-08-19T11:09:31;23.60;62.40
439;DHT22;206;48.782;9.252;2022-08-19T11:12:01;23.70;62.90
439;DHT22;206;48.782;9.252;2022-08-19T11:14:27;23.70;63.40
439;DHT22;206;48.782;9.252;2022-08-19T11:16:53;23.70;63.80
439;DHT22;206;48.782;9.252;2022-08-19T11:19:21;23.80;61.50
439;DHT22;206;48.782;9.252;2022-08-19T11:21:49;23.80;60.90
439;DHT22;206;48.782;9.252;2022-08-19T11:24:20;23.80;61.10
439;DHT22;206;48.782;9.252;2022-08-19T11:26:49;23.90;62.20
439;DHT22;206;48.782;9.252;2022-08-19T11:29:16;23.90;62.10
439;DHT22;206;48.782;9.252;2022-08-19T11:31:45;24.00;62.70
439;DHT22;206;48.782;9.252;2022-08-19T11:34:14;24.00;62.00
439;DHT22;206;48.782;9.252;2022-08-19T11:36:43;24.00;61.90
439;DHT22;206;48.782;9.252;2022-08-19T11:39:11;24.00;62.70
439;DHT22;206;48.782;9.252;2022-08-19T11:41:37;24.00;62.50
439;DHT22;206;48.782;9.252;2022-08-19T11:44:03;24.00;62.80
439;DHT22;206;48.782;9.252;2022-08-19T11:46:30;24.10;63.00
439;DHT22;206;48.782;9.252;2022-08-19T11:48:57;24.00;60.70
439;DHT22;206;48.782;9.252;2022-08-19T11:51:26;24.00;61.00
439;DHT22;206;48.782;9.252;2022-08-19T11:53:53;24.00;61.70
439;DHT22;206;48.782;9.252;2022-08-19T11:56:19;24.00;62.60
439;DHT22;206;48.782;9.252;2022-08-19T11:58:45;23.90;61.90
439;DHT22;206;48.782;9.252;2022-08-19T12:01:13;23.80;61.60
439;DHT22;206;48.782;9.252;2022-08-19T12:03:42;23.90;60.50
439;DHT22;206;48.782;9.252;2022-08-19T12:06:12;23.90;62.00
439;DHT22;206;48.782;9.252;2022-08-19T12:08:41;23.80;61.80
439;DHT22;206;48.782;9.252;2022-08-19T12:11:08;23.80;62.50
439;DHT22;206;48.782;9.252;2022-08-19T12:13:34;23.80;63.50
439;DHT22;206;48.782;9.252;2022-08-19T12:16:00;23.80;63.40
439;DHT22;206;48.782;9.252;2022-08-19T12:18:27;23.80;64.60
439;DHT22;206;48.782;9.252;2022-08-19T12:20:53;23.70;64.60
439;DHT22;206;48.782;9.252;2022-08-19T12:23:22;23.70;64.00
439;DHT22;206;48.782;9.252;2022-08-19T12:25:49;23.70;63.80
439;DHT22;206;48.782;9.252;2022-08-19T12:28:22;23.70;63.40
439;DHT22;206;48.782;9.252;2022-08-19T12:30:49;23.70;62.30
439;DHT22;206;48.782;9.252;2022-08-19T12:33:19;23.70;62.60
439;DHT22;206;48.782;9.252;2022-08-19T12:35:48;23.70;62.50
439;DHT22;206;48.782;9.252;2022-08-19T12:38:14;23.80;62.90
439;DHT22;206;48.782;9.252;2022-08-19T12:40:40;23.80;62.70
439;DHT22;206;48.782;9.252;2022-08-19T12:43:07;23.90;62.30
439;DHT22;206;48.782;9.252;2022-08-19T12:45:33;23.90;62.60
439;DHT22;206;48.782;9.252;2022-08-19T12:47:58;23.90;62.60
439;DHT22;206;48.782;9.252;2022-08-19T12:50:24;23.80;61.90
439;DHT22;206;48.782;9.252;2022-08-19T12:52:50;23.80;61.80
439;DHT22;206;48.782;9.252;2022-08-19T12:55:17;23.90;61.70
439;DHT22;206;48.782;9.252;2022-08-19T12:57:44;23.80;62.00
439;DHT22;206;48.782;9.252;2022-08-19T13:00:14;23.80;62.30
439;DHT22;206;48.782;9.252;2022-08-19T13:02:42;23.80;62.60
439;DHT22;206;48.782;9.252;2022-08-19T13:05:11;23.80;63.40
439;DHT22;206;48.782;9.252;2022-08-19T13:07:38;23.80;64.20
439;DHT22;206;48.782;9.252;2022-08-19T13:10:06;23.80;64.10
439;DHT22;206;48.782;9.252;2022-08-19T13:12:32;23.90;64.70
439;DHT22;206;48.782;9.252;2022-08-19T13:14:57;23.90;63.90
439;DHT22;206;48.782;9.252;2022-08-19T13:17:23;23.90;63.50
439;DHT22;206;48.782;9.252;2022-08-19T13:19:49;23.90;63.50
439;DHT22;206;48.782;9.252;2022-08-19T13:22:15;23.90;62.90
439;DHT22;206;48.782;9.252;2022-08-19T13:24:41;23.80;63.80
439;DHT22;206;48.782;9.252;2022-08-19T13:27:06;23.80;63.30
439;DHT22;206;48.782;9.252;2022-08-19T13:29:32;23.70;64.00
439;DHT22;206;48.782;9.252;2022-08-19T13:32:16;23.60;64.20
439;DHT22;206;48.782;9.252;2022-08-19T13:35:01;23.60;64.70
439;DHT22;206;48.782;9.252;2022-08-19T13:37:27;23.50;64.50
439;DHT22;206;48.782;9.252;2022-08-19T13:40:19;23.40;65.30
439;DHT22;206;48.782;9.252;2022-08-19T13:42:47;23.30;65.60
439;DHT22;206;48.782;9.252;2022-08-19T13:45:18;23.20;65.80
439;DHT22;206;48.782;9.252;2022-08-19T13:47:46;23.20;67.00
439;DHT22;206;48.782;9.252;2022-08-19T13:50:15;23.10;67.80
439;DHT22;206;48.782;9.252;2022-08-19T13:52:41;23.10;67.20
439;DHT22;206;48.782;9.252;2022-08-19T13:55:08;23.10;67.20
439;DHT22;206;48.782;9.252;2022-08-19T13:57:35;23.10;67.30
439;DHT22;206;48.782;9.252;2022-08-19T14:00:02;23.10;67.30
439;DHT22;206;48.782;9.252;2022-08-19T14:02:28;23.00;67.10
439;DHT22;206;48.782;9.252;2022-08-19T14:04:54;23.00;67.90
439;DHT22;206;48.782;9.252;2022-08-19T14:07:19;23.00;68.70
439;DHT22;206;48.782;9.252;2022-08-19T14:09:45;23.00;67.70
439;DHT22;206;48.782;9.252;2022-08-19T14:12:11;22.90;67.90
439;DHT22;206;48.782;9.252;2022-08-19T14:14:37;23.00;68.70
439;DHT22;206;48.782;9.252;2022-08-19T14:17:07;23.00;69.10
439;DHT22;206;48.782;9.252;2022-08-19T14:19:33;23.00;69.20
439;DHT22;206;48.782;9.252;2022-08-19T14:21:58;22.90;69.60
439;DHT22;206;48.782;9.252;2022-08-19T14:24:24;22.90;69.90
439;DHT22;206;48.782;9.252;2022-08-19T14:26:50;22.90;70.30
439;DHT22;206;48.782;9.252;2022-08-19T14:29:15;22.80;71.00
439;DHT22;206;48.782;9.252;2022-08-19T14:31:41;22.80;71.60
439;DHT22;206;48.782;9.252;2022-08-19T14:34:09;22.80;72.80
439;DHT22;206;48.782;9.252;2022-08-19T14:36:36;22.90;72.10
439;DHT22;206;48.782;9.252;2022-08-19T14:39:03;22.90;72.00
439;DHT22;206;48.782;9.252;2022-08-19T14:41:29;22.90;71.70
439;DHT22;206;48.782;9.252;2022-08-19T14:43:56;22.90;71.90
439;DHT22;206;48.782;9.252;2022-08-19T14:46:25;22.90;71.30
439;DHT22;206;48.782;9.252;2022-08-19T14:48:52;23.00;71.30
439;DHT22;206;48.782;9.252;2022-08-19T14:51:19;23.00;70.10
439;DHT22;206;48.782;9.252;2022-08-19T14:53:45;23.00;69.70
439;DHT22;206;48.782;9.252;2022-08-19T14:56:16;23.00;69.20
439;DHT22;206;48.782;9.252;2022-08-19T14:58:43;23.00;69.50
439;DHT22;206;48.782;9.252;2022-08-19T15:01:09;23.00;68.60
439;DHT22;206;48.782;9.252;2022-08-19T15:03:36;23.00;68.40
439;DHT22;206;48.782;9.252;2022-08-19T15:06:03;23.00;68.50
439;DHT22;206;48.782;9.252;2022-08-19T15:08:31;23.00;68.10
439;DHT22;206;48.782;9.252;2022-08-19T15:10:57;23.00;66.80
439;DHT22;206;48.782;9.252;2022-08-19T15:13:25;23.00;67.00
439;DHT22;206;48.782;9.252;2022-08-19T15:15:52;23.00;66.80
439;DHT22;206;48.782;9.252;2022-08-19T15:18:18;23.10;66.40
439;DHT22;206;48.782;9.252;2022-08-19T15:20:46;23.10;66.40
439;DHT22;206;48.782;9.252;2022-08-19T15:23:13;23.10;66.30
439;DHT22;206;48.782;9.252;2022-08-19T15:25:40;23.10;66.10
439;DHT22;206;48.782;9.252;2022-08-19T15:28:06;23.10;66.20
439;DHT22;206;48.782;9.252;2022-08-19T15:30:32;23.10;65.40
439;DHT22;206;48.782;9.252;2022-08-19T15:32:59;23.10;65.40
439;DHT22;206;48.782;9.252;2022-08-19T15:35:25;23.20;65.50
439;DHT22;206;48.782;9.252;2022-08-19T15:37:52;23.20;66.20
439;DHT22;206;48.782;9.252;2022-08-19T15:40:19;23.20;64.70
439;DHT22;206;48.782;9.252;2022-08-19T15:42:46;23.30;64.30
439;DHT22;206;48.782;9.252;2022-08-19T15:45:13;23.30;64.70
439;DHT22;206;48.782;9.252;2022-08-19T15:47:39;23.40;63.60
439;DHT22;206;48.782;9.252;2022-08-19T15:50:12;23.40;62.80
439;DHT22;206;48.782;9.252;2022-08-19T15:52:50;23.40;62.60
439;DHT22;206;48.782;9.252;2022-08-19T15:55:22;23.40;62.40
439;DHT22;206;48.782;9.252;2022-08-19T15:57:48;23.40;61.50
439;DHT22;206;48.782;9.252;2022-08-19T16:00:33;23.40;61.10
439;DHT22;206;48.782;9.252;2022-08-19T16:03:16;23.40;62.00
439;DHT22;206;48.782;9.252;2022-08-19T16:06:01;23.40;61.80
439;DHT22;206;48.782;9.252;2022-08-19T16:08:45;23.30;62.50
439;DHT22;206;48.782;9.252;2022-08-19T16:11:17;23.30;62.50
439;DHT22;206;48.782;9.252;2022-08-19T16:13:47;23.20;63.70
439;DHT22;206;48.782;9.252;2022-08-19T16:16:17;23.20;63.40
439;DHT22;206;48.782;9.252;2022-08-19T16:18:43;23.20;63.50
439;DHT22;206;48.782;9.252;2022-08-19T16:21:12;23.20;62.50
439;DHT22;206;48.782;9.252;2022-08-19T16:23:38;23.30;62.20
439;DHT22;206;48.782;9.252;2022-08-19T16:26:04;23.30;62.20
439;DHT22;206;48.782;9.252;2022-08-19T16:28:30;23.30;61.20
439;DHT22;206;48.782;9.252;2022-08-19T16:30:55;23.30;61.60
439;DHT22;206;48.782;9.252;2022-08-19T16:33:21;23.30;62.00
439;DHT22;206;48.782;9.252;2022-08-19T16:35:46;23.40;62.20
439;DHT22;206;48.782;9.252;2022-08-19T16:38:12;23.40;60.50
439;DHT22;206;48.782;9.252;2022-08-19T16:40:38;23.40;60.20
439;DHT22;206;48.782;9.252;2022-08-19T16:43:03;23.50;59.50
439;DHT22;206;48.782;9.252;2022-08-19T16:45:29;23.50;60.00
439;DHT22;206;48.782;9.252;2022-08-19T16:47:55;23.40;59.20
439;DHT22;206;48.782;9.252;2022-08-19T16:50:22;23.40;59.30